sensor_id;sensor_type;location;lat;lon;timestamp;pressure;altitude;pressure_sealevel;temperature;humidity
21869;BME280;11099;41.564;23.296;2023-12-22T00:48:22;96287.59;;;5.28;100.00
21869;BME280;11099;41.564;23.296;2023-12-22T01:07:59;96261.81;;;4.67;100.00
21869;BME280;11099;41.564;23.296;2023-12-22T01:17:13;96308.19;;;5.26;100.00
21869;BME280;11099;41.564;23.296;2023-12-22T05:58:50;96070.25;;;5.07;100.00
21869;BME280;11099;41.564;23.296;2023-12-22T06:01:17;96072.28;;;5.19;100.00
21869;BME280;11099;41.564;23.296;2023-12-22T06:03:50;96120.28;;;5.38;100.00
21869;BME280;11099;41.564;23.296;2023-12-22T06:06:17;96044.22;;;4.83;100.00
21869;BME280;11099;41.564;23.296;2023-12-22T06:09:44;96058.72;;;5.60;100.00
21869;BME280;11099;41.564;23.296;2023-12-22T06:12:32;96156.31;;;5.82;100.00
21869;BME280;11099;41.564;23.296;2023-12-22T06:15:01;96091.41;;;5.24;100.00
21869;BME280;11099;41.564;23.296;2023-12-22T06:17:29;96092.94;;;5.25;100.00
21869;BME280;11099;41.564;23.296;2023-12-22T06:19:57;96129.97;;;5.51;100.00
21869;BME280;11099;41.564;23.296;2023-12-22T06:22:23;96090.63;;;5.24;100.00
21869;BME280;11099;41.564;23.296;2023-12-22T06:24:49;96066.69;;;5.12;100.00
21869;BME280;11099;41.564;23.296;2023-12-22T06:27:15;96169.06;;;5.98;100.00
21869;BME280;11099;41.564;23.296;2023-12-22T06:29:48;96171.28;;;4.85;100.00
21869;BME280;11099;41.564;23.296;2023-12-22T06:32:14;96169.69;;;5.46;100.00
21869;BME280;11099;41.564;23.296;2023-12-22T06:34:41;96073.66;;;5.08;100.00
21869;BME280;11099;41.564;23.296;2023-12-22T06:37:07;96109.13;;;5.41;100.00
21869;BME280;11099;41.564;23.296;2023-12-22T06:39:33;96113.03;;;5.52;100.00
21869;BME280;11099;41.564;23.296;2023-12-22T06:41:59;96158.63;;;5.84;100.00
21869;BME280;11099;41.564;23.296;2023-12-22T06:44:25;96143.34;;;5.55;100.00
21869;BME280;11099;41.564;23.296;2023-12-22T06:46:51;96107.28;;;4.71;100.00
21869;BME280;11099;41.564;23.296;2023-12-22T06:49:18;96073.38;;;4.25;100.00
21869;BME280;11099;41.564;23.296;2023-12-22T06:51:46;96095.34;;;4.20;100.00
21869;BME280;11099;41.564;23.296;2023-12-22T06:54:15;96098.28;;;4.18;100.00
21869;BME280;11099;41.564;23.296;2023-12-22T06:56:41;96155.00;;;4.92;100.00
21869;BME280;11099;41.564;23.296;2023-12-22T06:59:09;96050.38;;;4.16;100.00
21869;BME280;11099;41.564;23.296;2023-12-22T07:01:39;96147.91;;;4.70;100.00
21869;BME280;11099;41.564;23.296;2023-12-22T07:04:05;96076.72;;;4.39;100.00
21869;BME280;11099;41.564;23.296;2023-12-22T07:06:35;96042.53;;;4.47;100.00
21869;BME280;11099;41.564;23.296;2023-12-22T07:12:00;96058.34;;;4.79;100.00
21869;BME280;11099;41.564;23.296;2023-12-22T07:14:29;96127.34;;;5.12;100.00
21869;BME280;11099;41.564;23.296;2023-12-22T07:16:55;96149.16;;;5.35;100.00
21869;BME280;11099;41.564;23.296;2023-12-22T07:19:28;96092.94;;;5.17;100.00
21869;BME280;11099;41.564;23.296;2023-12-22T07:21:54;96080.16;;;5.10;100.00
21869;BME280;11099;41.564;23.296;2023-12-22T07:24:20;96141.63;;;5.50;100.00
21869;BME280;11099;41.564;23.296;2023-12-22T07:26:47;96121.06;;;5.30;100.00
21869;BME280;11099;41.564;23.296;2023-12-22T07:29:14;96029.50;;;4.82;100.00
21869;BME280;11099;41.564;23.296;2023-12-22T07:31:40;96158.88;;;5.57;100.00
21869;BME280;11099;41.564;23.296;2023-12-22T07:34:07;96074.63;;;5.20;100.00
21869;BME280;11099;41.564;23.296;2023-12-22T07:36:35;96085.22;;;5.29;100.00
21869;BME280;11099;41.564;23.296;2023-12-22T07:39:04;96148.31;;;5.65;100.00
21869;BME280;11099;41.564;23.296;2023-12-22T07:41:32;96126.53;;;5.99;100.00
21869;BME280;11099;41.564;23.296;2023-12-22T07:43:58;96095.59;;;5.91;100.00
21869;BME280;11099;41.564;23.296;2023-12-22T07:46:28;96153.88;;;6.47;100.00
21869;BME280;11099;41.564;23.296;2023-12-22T07:48:54;96152.00;;;6.47;100.00
21869;BME280;11099;41.564;23.296;2023-12-22T07:51:23;96148.88;;;6.63;100.00
21869;BME280;11099;41.564;23.296;2023-12-22T07:53:49;96092.78;;;5.96;100.00
21869;BME280;11099;41.564;23.296;2023-12-22T07:56:17;96071.34;;;6.32;100.00
21869;BME280;11099;41.564;23.296;2023-12-22T07:58:48;96075.84;;;6.41;100.00
21869;BME280;11099;41.564;23.296;2023-12-22T08:01:19;96127.91;;;6.57;100.00
21869;BME280;11099;41.564;23.296;2023-12-22T08:03:45;96145.03;;;6.17;100.00
21869;BME280;11099;41.564;23.296;2023-12-22T08:06:12;96155.09;;;6.15;100.00
21869;BME280;11099;41.564;23.296;2023-12-22T08:08:39;96169.03;;;5.89;100.00
21869;BME280;11099;41.564;23.296;2023-12-22T08:11:07;96080.56;;;5.43;100.00
21869;BME280;11099;41.564;23.296;2023-12-22T08:13:34;96177.50;;;6.26;100.00
21869;BME280;11099;41.564;23.296;2023-12-22T08:16:01;96162.09;;;6.02;100.00
21869;BME280;11099;41.564;23.296;2023-12-22T08:18:29;96174.78;;;5.82;100.00
21869;BME280;11099;41.564;23.296;2023-12-22T08:20:54;96110.03;;;5.28;100.00
21869;BME280;11099;41.564;23.296;2023-12-22T08:23:21;96135.44;;;5.64;100.00
21869;BME280;11099;41.564;23.296;2023-12-22T08:25:47;96099.75;;;5.84;100.00
21869;BME280;11099;41.564;23.296;2023-12-22T08:28:13;96142.06;;;6.10;100.00
21869;BME280;11099;41.564;23.296;2023-12-22T08:30:39;96096.38;;;6.00;100.00
21869;BME280;11099;41.564;23.296;2023-12-22T08:33:05;96113.31;;;6.08;100.00
21869;BME280;11099;41.564;23.296;2023-12-22T08:35:31;96142.84;;;6.10;100.00
21869;BME280;11099;41.564;23.296;2023-12-22T08:37:57;96093.66;;;5.57;100.00
21869;BME280;11099;41.564;23.296;2023-12-22T08:40:23;96195.84;;;6.05;100.00
21869;BME280;11099;41.564;23.296;2023-12-22T08:42:54;96188.53;;;6.11;100.00
21869;BME280;11099;41.564;23.296;2023-12-22T08:45:26;96148.63;;;5.64;100.00
21869;BME280;11099;41.564;23.296;2023-12-22T08:47:54;96187.28;;;5.60;100.00
21869;BME280;11099;41.564;23.296;2023-12-22T08:50:21;96101.56;;;4.24;100.00
21869;BME280;11099;41.564;23.296;2023-12-22T08:52:49;96188.31;;;5.10;100.00
21869;BME280;11099;41.564;23.296;2023-12-22T08:55:16;96183.97;;;4.61;100.00
21869;BME280;11099;41.564;23.296;2023-12-22T08:58:31;96171.50;;;4.53;100.00
21869;BME280;11099;41.564;23.296;2023-12-22T09:00:58;96118.81;;;4.30;100.00
21869;BME280;11099;41.564;23.296;2023-12-22T09:03:26;96071.50;;;3.80;100.00
21869;BME280;11099;41.564;23.296;2023-12-22T09:06:00;96086.25;;;4.26;100.00
21869;BME280;11099;41.564;23.296;2023-12-22T09:08:28;96087.53;;;3.92;100.00
21869;BME280;11099;41.564;23.296;2023-12-22T09:11:21;96105.50;;;4.58;100.00
21869;BME280;11099;41.564;23.296;2023-12-22T09:13:57;96085.16;;;4.27;100.00
21869;BME280;11099;41.564;23.296;2023-12-22T09:16:44;96066.31;;;4.65;100.00
21869;BME280;11099;41.564;23.296;2023-12-22T09:19:16;96141.25;;;4.95;100.00
21869;BME280;11099;41.564;23.296;2023-12-22T09:21:44;96134.44;;;5.02;100.00
21869;BME280;11099;41.564;23.296;2023-12-22T09:24:24;96169.59;;;5.69;100.00
21869;BME280;11099;41.564;23.296;2023-12-22T09:26:58;96116.63;;;5.08;100.00
21869;BME280;11099;41.564;23.296;2023-12-22T09:29:53;96113.91;;;5.22;100.00
21869;BME280;11099;41.564;23.296;2023-12-22T09:32:53;96180.38;;;5.41;100.00
21869;BME280;11099;41.564;23.296;2023-12-22T09:36:07;96096.09;;;4.96;100.00
21869;BME280;11099;41.564;23.296;2023-12-22T09:41:59;96043.97;;;5.76;100.00
21869;BME280;11099;41.564;23.296;2023-12-22T09:44:31;96053.94;;;5.88;100.00
21869;BME280;11099;41.564;23.296;2023-12-22T09:47:05;96158.06;;;6.82;100.00
21869;BME280;11099;41.564;23.296;2023-12-22T09:49:43;96079.56;;;6.48;100.00
21869;BME280;11099;41.564;23.296;2023-12-22T09:52:27;96131.97;;;6.55;100.00
21869;BME280;11099;41.564;23.296;2023-12-22T09:54:54;96090.88;;;6.57;100.00
21869;BME280;11099;41.564;23.296;2023-12-22T09:57:27;96147.34;;;6.62;100.00
21869;BME280;11099;41.564;23.296;2023-12-22T10:00:46;96138.22;;;7.15;100.00
21869;BME280;11099;41.564;23.296;2023-12-22T10:03:35;96135.81;;;6.75;100.00
21869;BME280;11099;41.564;23.296;2023-12-22T10:06:04;96105.59;;;6.93;100.00
21869;BME280;11099;41.564;23.296;2023-12-22T10:08:45;96030.28;;;6.35;100.00
21869;BME280;11099;41.564;23.296;2023-12-22T10:11:38;96045.44;;;6.64;100.00
21869;BME280;11099;41.564;23.296;2023-12-22T10:14:18;96122.47;;;7.18;100.00
21869;BME280;11099;41.564;23.296;2023-12-22T10:17:01;96074.72;;;7.06;100.00
21869;BME280;11099;41.564;23.296;2023-12-22T10:19:37;96093.94;;;7.24;100.00
21869;BME280;11099;41.564;23.296;2023-12-22T10:22:12;96089.56;;;7.28;100.00
21869;BME280;11099;41.564;23.296;2023-12-22T10:27:20;96127.19;;;7.72;100.00
21869;BME280;11099;41.564;23.296;2023-12-22T10:29:55;96028.09;;;6.54;100.00
21869;BME280;11099;41.564;23.296;2023-12-22T10:32:32;96062.41;;;7.10;100.00
21869;BME280;11099;41.564;23.296;2023-12-22T10:34:58;96108.78;;;7.46;100.00
21869;BME280;11099;41.564;23.296;2023-12-22T10:37:24;96047.22;;;6.98;100.00
21869;BME280;11099;41.564;23.296;2023-12-22T10:39:55;95990.84;;;6.21;100.00
21869;BME280;11099;41.564;23.296;2023-12-22T10:42:23;95984.44;;;6.40;100.00
21869;BME280;11099;41.564;23.296;2023-12-22T10:44:55;96049.59;;;7.21;100.00
21869;BME280;11099;41.564;23.296;2023-12-22T10:47:26;96031.28;;;7.07;100.00
21869;BME280;11099;41.564;23.296;2023-12-22T10:49:55;96020.59;;;7.03;100.00
21869;BME280;11099;41.564;23.296;2023-12-22T10:52:28;96012.09;;;7.19;100.00
21869;BME280;11099;41.564;23.296;2023-12-22T10:55:00;96093.94;;;7.83;100.00
21869;BME280;11099;41.564;23.296;2023-12-22T10:57:32;95994.63;;;7.26;100.00
21869;BME280;11099;41.564;23.296;2023-12-22T11:00:13;95990.75;;;6.94;100.00
21869;BME280;11099;41.564;23.296;2023-12-22T11:02:49;96021.25;;;6.92;100.00
21869;BME280;11099;41.564;23.296;2023-12-22T11:08:28;95992.03;;;6.50;100.00
21869;BME280;11099;41.564;23.296;2023-12-22T11:11:30;96085.22;;;7.32;100.00
21869;BME280;11099;41.564;23.296;2023-12-22T11:14:01;96083.00;;;7.34;100.00
21869;BME280;11099;41.564;23.296;2023-12-22T11:16:41;95961.94;;;6.63;100.00
21869;BME280;11099;41.564;23.296;2023-12-22T11:19:17;95998.84;;;7.19;100.00
21869;BME280;11099;41.564;23.296;2023-12-22T11:21:50;96044.31;;;7.21;100.00
21869;BME280;11099;41.564;23.296;2023-12-22T11:24:22;96050.06;;;7.23;100.00
21869;BME280;11099;41.564;23.296;2023-12-22T11:27:01;96060.38;;;7.45;100.00
21869;BME280;11099;41.564;23.296;2023-12-22T11:29:50;96037.75;;;7.27;100.00
21869;BME280;11099;41.564;23.296;2023-12-22T11:32:21;96035.59;;;7.20;100.00
21869;BME280;11099;41.564;23.296;2023-12-22T11:34:53;95979.69;;;6.92;100.00
21869;BME280;11099;41.564;23.296;2023-12-22T11:37:22;95982.97;;;6.59;100.00
21869;BME280;11099;41.564;23.296;2023-12-22T11:39:53;95986.38;;;6.04;100.00
21869;BME280;11099;41.564;23.296;2023-12-22T11:42:30;95941.88;;;6.24;100.00
21869;BME280;11099;41.564;23.296;2023-12-22T11:45:07;95961.53;;;6.52;100.00
21869;BME280;11099;41.564;23.296;2023-12-22T11:47:42;95986.84;;;6.53;100.00
21869;BME280;11099;41.564;23.296;2023-12-22T11:53:22;96052.66;;;6.55;100.00
21869;BME280;11099;41.564;23.296;2023-12-22T11:56:10;95993.94;;;6.15;100.00
21869;BME280;11099;41.564;23.296;2023-12-22T11:58:40;96059.06;;;6.19;100.00
21869;BME280;11099;41.564;23.296;2023-12-22T12:03:36;96079.06;;;5.51;100.00
21869;BME280;11099;41.564;23.296;2023-12-22T12:09:01;96076.25;;;5.65;100.00
21869;BME280;11099;41.564;23.296;2023-12-22T12:14:32;96002.53;;;5.77;100.00
21869;BME280;11099;41.564;23.296;2023-12-22T12:17:11;96053.41;;;7.02;100.00
21869;BME280;11099;41.564;23.296;2023-12-22T12:19:42;95963.69;;;7.39;100.00
21869;BME280;11099;41.564;23.296;2023-12-22T12:22:38;96038.75;;;8.06;100.00
21869;BME280;11099;41.564;23.296;2023-12-22T12:25:31;95952.97;;;7.56;100.00
21869;BME280;11099;41.564;23.296;2023-12-22T12:28:06;95988.03;;;7.95;100.00
21869;BME280;11099;41.564;23.296;2023-12-22T12:30:35;95954.63;;;8.36;100.00
21869;BME280;11099;41.564;23.296;2023-12-22T12:33:20;96043.41;;;8.09;100.00
21869;BME280;11099;41.564;23.296;2023-12-22T12:35:46;96031.28;;;7.87;100.00
21869;BME280;11099;41.564;23.296;2023-12-22T12:38:54;96054.81;;;8.22;100.00
21869;BME280;11099;41.564;23.296;2023-12-22T12:41:53;96005.88;;;7.65;100.00
21869;BME280;11099;41.564;23.296;2023-12-22T12:44:49;96035.06;;;7.98;100.00
21869;BME280;11099;41.564;23.296;2023-12-22T12:50:12;95972.38;;;7.48;100.00
21869;BME280;11099;41.564;23.296;2023-12-22T12:52:41;95971.66;;;7.39;100.00
21869;BME280;11099;41.564;23.296;2023-12-22T12:55:11;96047.34;;;8.03;100.00
21869;BME280;11099;41.564;23.296;2023-12-22T12:57:41;95954.06;;;7.34;100.00
21869;BME280;11099;41.564;23.296;2023-12-22T13:00:07;96036.63;;;8.32;100.00
21869;BME280;11099;41.564;23.296;2023-12-22T13:02:39;96033.34;;;8.02;100.00
21869;BME280;11099;41.564;23.296;2023-12-22T13:05:06;96052.34;;;8.58;100.00
21869;BME280;11099;41.564;23.296;2023-12-22T13:07:37;96033.56;;;8.76;100.00
21869;BME280;11099;41.564;23.296;2023-12-22T13:10:05;96001.47;;;8.44;100.00
21869;BME280;11099;41.564;23.296;2023-12-22T13:12:53;96010.72;;;8.38;100.00
21869;BME280;11099;41.564;23.296;2023-12-22T13:15:23;96046.16;;;8.12;100.00
21869;BME280;11099;41.564;23.296;2023-12-22T13:17:57;95969.16;;;7.97;100.00
21869;BME280;11099;41.564;23.296;2023-12-22T13:20:30;95956.34;;;7.65;100.00
21869;BME280;11099;41.564;23.296;2023-12-22T13:22:58;95949.88;;;7.75;100.00
21869;BME280;11099;41.564;23.296;2023-12-22T13:25:25;96001.69;;;8.51;100.00
21869;BME280;11099;41.564;23.296;2023-12-22T13:28:00;95994.63;;;8.22;100.00
21869;BME280;11099;41.564;23.296;2023-12-22T13:30:55;95992.63;;;7.86;100.00
21869;BME280;11099;41.564;23.296;2023-12-22T13:33:34;96025.47;;;8.27;100.00
21869;BME280;11099;41.564;23.296;2023-12-22T13:36:07;96099.44;;;8.19;100.00
21869;BME280;11099;41.564;23.296;2023-12-22T13:38:36;95983.25;;;7.47;100.00
21869;BME280;11099;41.564;23.296;2023-12-22T13:41:07;96029.72;;;8.40;100.00
21869;BME280;11099;41.564;23.296;2023-12-22T13:43:34;96025.06;;;8.04;100.00
21869;BME280;11099;41.564;23.296;2023-12-22T13:46:00;96080.66;;;8.79;100.00
21869;BME280;11099;41.564;23.296;2023-12-22T13:48:26;96083.75;;;8.68;100.00
21869;BME280;11099;41.564;23.296;2023-12-22T13:51:04;96022.38;;;8.25;100.00
21869;BME280;11099;41.564;23.296;2023-12-22T13:53:53;96052.53;;;8.53;100.00
21869;BME280;11099;41.564;23.296;2023-12-22T13:56:24;96057.72;;;8.50;100.00
21869;BME280;11099;41.564;23.296;2023-12-22T13:58:57;96062.25;;;8.07;100.00
21869;BME280;11099;41.564;23.296;2023-12-22T14:01:28;96070.69;;;7.88;100.00
21869;BME280;11099;41.564;23.296;2023-12-22T14:03:55;96118.63;;;8.16;100.00
21869;BME280;11099;41.564;23.296;2023-12-22T14:06:25;96142.19;;;8.39;100.00
21869;BME280;11099;41.564;23.296;2023-12-22T14:08:55;96076.16;;;8.46;100.00
21869;BME280;11099;41.564;23.296;2023-12-22T14:11:21;96062.31;;;8.40;100.00
21869;BME280;11099;41.564;23.296;2023-12-22T14:13:49;96065.44;;;7.80;100.00
21869;BME280;11099;41.564;23.296;2023-12-22T14:16:17;96105.41;;;8.70;100.00
21869;BME280;11099;41.564;23.296;2023-12-22T14:18:43;96151.53;;;9.36;100.00
21869;BME280;11099;41.564;23.296;2023-12-22T14:21:12;96128.66;;;8.53;100.00
21869;BME280;11099;41.564;23.296;2023-12-22T14:23:40;96136.09;;;9.05;100.00
21869;BME280;11099;41.564;23.296;2023-12-22T14:26:08;96091.19;;;8.87;100.00
21869;BME280;11099;41.564;23.296;2023-12-22T14:28:38;96066.81;;;8.73;100.00
21869;BME280;11099;41.564;23.296;2023-12-22T14:31:05;96059.31;;;8.75;100.00
21869;BME280;11099;41.564;23.296;2023-12-22T14:33:31;96140.44;;;9.09;100.00
21869;BME280;11099;41.564;23.296;2023-12-22T14:36:01;96146.72;;;9.05;100.00
21869;BME280;11099;41.564;23.296;2023-12-22T14:38:27;96130.69;;;8.68;100.00
21869;BME280;11099;41.564;23.296;2023-12-22T14:40:53;96118.38;;;8.51;100.00
21869;BME280;11099;41.564;23.296;2023-12-22T14:43:19;96156.97;;;8.19;100.00
21869;BME280;11099;41.564;23.296;2023-12-22T14:45:48;96173.91;;;8.27;100.00
21869;BME280;11099;41.564;23.296;2023-12-22T14:48:14;96173.94;;;8.48;100.00
21869;BME280;11099;41.564;23.296;2023-12-22T14:50:40;96079.84;;;8.33;100.00
21869;BME280;11099;41.564;23.296;2023-12-22T14:53:09;96070.03;;;7.71;100.00
21869;BME280;11099;41.564;23.296;2023-12-22T14:55:40;96105.91;;;8.31;100.00
21869;BME280;11099;41.564;23.296;2023-12-22T14:58:15;96078.00;;;8.45;100.00
21869;BME280;11099;41.564;23.296;2023-12-22T15:00:48;96133.75;;;8.16;100.00
21869;BME280;11099;41.564;23.296;2023-12-22T15:03:23;96125.56;;;8.09;100.00
21869;BME280;11099;41.564;23.296;2023-12-22T15:06:03;96216.28;;;8.77;100.00
21869;BME280;11099;41.564;23.296;2023-12-22T15:08:34;96193.00;;;8.62;100.00
21869;BME280;11099;41.564;23.296;2023-12-22T15:11:25;96247.16;;;9.48;100.00
21869;BME280;11099;41.564;23.296;2023-12-22T15:13:59;96157.94;;;9.22;100.00
21869;BME280;11099;41.564;23.296;2023-12-22T15:16:47;96172.38;;;9.01;100.00
21869;BME280;11099;41.564;23.296;2023-12-22T15:19:19;96195.59;;;8.50;100.00
21869;BME280;11099;41.564;23.296;2023-12-22T15:22:16;96307.66;;;8.88;100.00
21869;BME280;11099;41.564;23.296;2023-12-22T15:34:31;96232.38;;;7.62;100.00
21869;BME280;11099;41.564;23.296;2023-12-22T15:37:24;96221.84;;;7.92;100.00
21869;BME280;11099;41.564;23.296;2023-12-22T15:39:57;96268.75;;;8.21;100.00
21869;BME280;11099;41.564;23.296;2023-12-22T15:45:02;96196.81;;;7.81;100.00
21869;BME280;11099;41.564;23.296;2023-12-22T15:48:01;96288.50;;;8.32;100.00
21869;BME280;11099;41.564;23.296;2023-12-22T15:53:17;96216.47;;;8.30;100.00
21869;BME280;11099;41.564;23.296;2023-12-22T15:55:44;96255.41;;;8.09;100.00
21869;BME280;11099;41.564;23.296;2023-12-22T16:01:04;96332.25;;;8.77;100.00
21869;BME280;11099;41.564;23.296;2023-12-22T16:07:39;96247.59;;;8.12;100.00
21869;BME280;11099;41.564;23.296;2023-12-22T16:10:09;96239.00;;;8.15;100.00
21869;BME280;11099;41.564;23.296;2023-12-22T16:15:18;96243.84;;;8.43;100.00
21869;BME280;11099;41.564;23.296;2023-12-22T17:48:59;96480.03;;;9.14;100.00
21869;BME280;11099;41.564;23.296;2023-12-22T17:54:50;96510.41;;;9.34;100.00
21869;BME280;11099;41.564;23.296;2023-12-22T19:54:37;96618.00;;;9.40;100.00
